sensor_id;sensor_type;location;lat;lon;timestamp;pressure;altitude;pressure_sealevel;temperature;humidity
11672;BME280;5892;43.412;24.612;2023-05-21T00:00:02;99957.75;;;13.17;100.00
11672;BME280;5892;43.412;24.612;2023-05-21T00:02:35;99962.94;;;13.19;100.00
11672;BME280;5892;43.412;24.612;2023-05-21T00:05:02;99963.59;;;13.15;100.00
11672;BME280;5892;43.412;24.612;2023-05-21T00:07:29;99959.06;;;13.11;100.00
11672;BME280;5892;43.412;24.612;2023-05-21T00:09:58;99948.91;;;13.11;100.00
11672;BME280;5892;43.412;24.612;2023-05-21T00:12:25;99941.06;;;12.93;100.00
11672;BME280;5892;43.412;24.612;2023-05-21T00:14:52;99947.34;;;13.02;100.00
11672;BME280;5892;43.412;24.612;2023-05-21T00:17:19;99945.44;;;12.94;100.00
11672;BME280;5892;43.412;24.612;2023-05-21T00:19:46;99943.69;;;12.89;100.00
11672;BME280;5892;43.412;24.612;2023-05-21T00:22:14;99940.75;;;12.94;100.00
11672;BME280;5892;43.412;24.612;2023-05-21T00:24:41;99945.22;;;12.99;100.00
11672;BME280;5892;43.412;24.612;2023-05-21T00:27:11;99913.19;;;12.82;100.00
11672;BME280;5892;43.412;24.612;2023-05-21T00:29:38;99940.94;;;12.89;100.00
11672;BME280;5892;43.412;24.612;2023-05-21T00:32:05;99934.56;;;12.77;100.00
11672;BME280;5892;43.412;24.612;2023-05-21T00:34:32;99937.03;;;12.69;100.00
11672;BME280;5892;43.412;24.612;2023-05-21T00:36:59;99935.56;;;12.72;100.00
11672;BME280;5892;43.412;24.612;2023-05-21T00:39:27;99926.66;;;12.75;100.00
11672;BME280;5892;43.412;24.612;2023-05-21T00:41:54;99924.63;;;12.84;100.00
11672;BME280;5892;43.412;24.612;2023-05-21T00:44:23;99927.91;;;12.78;100.00
11672;BME280;5892;43.412;24.612;2023-05-21T00:46:51;99929.09;;;12.77;100.00
11672;BME280;5892;43.412;24.612;2023-05-21T00:49:19;99923.91;;;12.75;100.00
11672;BME280;5892;43.412;24.612;2023-05-21T00:51:49;99925.03;;;12.74;100.00
11672;BME280;5892;43.412;24.612;2023-05-21T00:54:16;99924.09;;;12.70;100.00
11672;BME280;5892;43.412;24.612;2023-05-21T00:56:43;99912.06;;;12.54;100.00
11672;BME280;5892;43.412;24.612;2023-05-21T00:59:11;99914.31;;;12.60;100.00
11672;BME280;5892;43.412;24.612;2023-05-21T01:01:39;99921.25;;;12.58;100.00
11672;BME280;5892;43.412;24.612;2023-05-21T01:04:07;99911.59;;;12.52;100.00
11672;BME280;5892;43.412;24.612;2023-05-21T01:06:34;99912.56;;;12.56;100.00
11672;BME280;5892;43.412;24.612;2023-05-21T01:09:02;99906.78;;;12.49;100.00
11672;BME280;5892;43.412;24.612;2023-05-21T01:11:37;99896.72;;;12.53;100.00
11672;BME280;5892;43.412;24.612;2023-05-21T01:14:05;99907.91;;;12.48;100.00
11672;BME280;5892;43.412;24.612;2023-05-21T01:16:35;99913.78;;;12.38;100.00
11672;BME280;5892;43.412;24.612;2023-05-21T01:19:04;99913.88;;;12.50;100.00
11672;BME280;5892;43.412;24.612;2023-05-21T01:21:36;99914.03;;;12.53;100.00
11672;BME280;5892;43.412;24.612;2023-05-21T01:24:08;99907.09;;;12.47;100.00
11672;BME280;5892;43.412;24.612;2023-05-21T01:26:35;99908.66;;;12.57;100.00
11672;BME280;5892;43.412;24.612;2023-05-21T01:29:04;99900.28;;;12.53;100.00
11672;BME280;5892;43.412;24.612;2023-05-21T01:31:36;99909.03;;;12.47;100.00
11672;BME280;5892;43.412;24.612;2023-05-21T01:34:10;99916.63;;;12.50;100.00
11672;BME280;5892;43.412;24.612;2023-05-21T01:36:40;99924.69;;;12.55;100.00
11672;BME280;5892;43.412;24.612;2023-05-21T01:39:15;99904.84;;;12.49;100.00
11672;BME280;5892;43.412;24.612;2023-05-21T01:41:46;99902.41;;;12.48;100.00
11672;BME280;5892;43.412;24.612;2023-05-21T01:44:16;99899.47;;;12.53;100.00
11672;BME280;5892;43.412;24.612;2023-05-21T01:46:44;99904.56;;;12.63;100.00
11672;BME280;5892;43.412;24.612;2023-05-21T01:49:11;99898.69;;;12.73;100.00
11672;BME280;5892;43.412;24.612;2023-05-21T01:51:39;99891.38;;;12.77;100.00
11672;BME280;5892;43.412;24.612;2023-05-21T01:54:05;99890.09;;;12.74;100.00
11672;BME280;5892;43.412;24.612;2023-05-21T01:56:37;99881.38;;;12.72;100.00
11672;BME280;5892;43.412;24.612;2023-05-21T01:59:04;99894.13;;;12.77;100.00
11672;BME280;5892;43.412;24.612;2023-05-21T02:01:31;99894.13;;;12.77;100.00
11672;BME280;5892;43.412;24.612;2023-05-21T02:03:57;99894.41;;;12.84;100.00
11672;BME280;5892;43.412;24.612;2023-05-21T02:06:24;99895.06;;;12.81;100.00
11672;BME280;5892;43.412;24.612;2023-05-21T02:08:51;99901.50;;;12.85;100.00
11672;BME280;5892;43.412;24.612;2023-05-21T02:11:18;99888.44;;;12.82;100.00
11672;BME280;5892;43.412;24.612;2023-05-21T02:13:46;99897.66;;;12.78;100.00
11672;BME280;5892;43.412;24.612;2023-05-21T02:16:13;99882.94;;;12.82;100.00
11672;BME280;5892;43.412;24.612;2023-05-21T02:18:40;99884.47;;;12.71;100.00
11672;BME280;5892;43.412;24.612;2023-05-21T02:21:07;99899.44;;;12.82;100.00
11672;BME280;5892;43.412;24.612;2023-05-21T02:23:34;99902.97;;;12.83;100.00
11672;BME280;5892;43.412;24.612;2023-05-21T02:26:02;99907.50;;;12.87;100.00
11672;BME280;5892;43.412;24.612;2023-05-21T02:28:29;99905.06;;;12.86;100.00
11672;BME280;5892;43.412;24.612;2023-05-21T02:30:58;99884.47;;;12.71;100.00
11672;BME280;5892;43.412;24.612;2023-05-21T02:33:25;99910.38;;;12.91;100.00
11672;BME280;5892;43.412;24.612;2023-05-21T02:35:52;99886.06;;;12.72;100.00
11672;BME280;5892;43.412;24.612;2023-05-21T02:38:19;99906.00;;;12.90;100.00
11672;BME280;5892;43.412;24.612;2023-05-21T02:40:47;99897.63;;;12.86;100.00
11672;BME280;5892;43.412;24.612;2023-05-21T02:43:14;99913.94;;;12.91;100.00
11672;BME280;5892;43.412;24.612;2023-05-21T02:45:41;99904.06;;;12.90;100.00
11672;BME280;5892;43.412;24.612;2023-05-21T02:48:09;99912.78;;;12.92;100.00
11672;BME280;5892;43.412;24.612;2023-05-21T02:50:36;99909.84;;;12.97;100.00
11672;BME280;5892;43.412;24.612;2023-05-21T02:53:03;99897.00;;;13.01;100.00
11672;BME280;5892;43.412;24.612;2023-05-21T02:55:30;99907.94;;;13.10;100.00
11672;BME280;5892;43.412;24.612;2023-05-21T02:57:57;99905.69;;;13.12;100.00
11672;BME280;5892;43.412;24.612;2023-05-21T03:00:24;99901.44;;;13.14;100.00
11672;BME280;5892;43.412;24.612;2023-05-21T03:02:51;99908.25;;;13.17;100.00
11672;BME280;5892;43.412;24.612;2023-05-21T03:05:19;99911.59;;;13.23;100.00
11672;BME280;5892;43.412;24.612;2023-05-21T03:07:46;99905.88;;;13.28;100.00
11672;BME280;5892;43.412;24.612;2023-05-21T03:10:13;99912.41;;;13.35;100.00
11672;BME280;5892;43.412;24.612;2023-05-21T03:12:40;99920.81;;;13.39;100.00
11672;BME280;5892;43.412;24.612;2023-05-21T03:15:08;99922.72;;;13.59;100.00
11672;BME280;5892;43.412;24.612;2023-05-21T03:17:35;99919.09;;;13.79;100.00
11672;BME280;5892;43.412;24.612;2023-05-21T03:20:02;99919.34;;;13.98;100.00
11672;BME280;5892;43.412;24.612;2023-05-21T03:22:31;99902.94;;;14.14;100.00
11672;BME280;5892;43.412;24.612;2023-05-21T03:24:59;99909.03;;;14.20;100.00
11672;BME280;5892;43.412;24.612;2023-05-21T03:27:26;99908.81;;;14.13;100.00
11672;BME280;5892;43.412;24.612;2023-05-21T03:29:52;99913.88;;;14.59;100.00
11672;BME280;5892;43.412;24.612;2023-05-21T03:32:20;99922.22;;;14.87;100.00
11672;BME280;5892;43.412;24.612;2023-05-21T03:34:47;99928.78;;;14.82;100.00
11672;BME280;5892;43.412;24.612;2023-05-21T03:37:14;99920.63;;;14.74;100.00
11672;BME280;5892;43.412;24.612;2023-05-21T03:39:42;99920.41;;;14.67;100.00
11672;BME280;5892;43.412;24.612;2023-05-21T03:42:09;99921.69;;;14.57;100.00
11672;BME280;5892;43.412;24.612;2023-05-21T03:44:38;99922.72;;;14.40;100.00
11672;BME280;5892;43.412;24.612;2023-05-21T03:47:05;99917.53;;;14.27;100.00
11672;BME280;5892;43.412;24.612;2023-05-21T03:49:33;99919.97;;;14.40;100.00
11672;BME280;5892;43.412;24.612;2023-05-21T03:52:00;99914.34;;;14.37;100.00
11672;BME280;5892;43.412;24.612;2023-05-21T03:54:27;99915.28;;;14.53;100.00
11672;BME280;5892;43.412;24.612;2023-05-21T03:56:55;99918.56;;;14.71;100.00
11672;BME280;5892;43.412;24.612;2023-05-21T03:59:22;99914.75;;;14.88;100.00
11672;BME280;5892;43.412;24.612;2023-05-21T04:01:49;99916.44;;;14.92;100.00
11672;BME280;5892;43.412;24.612;2023-05-21T04:04:16;99915.53;;;15.00;100.00
11672;BME280;5892;43.412;24.612;2023-05-21T04:06:43;99917.53;;;15.15;100.00
11672;BME280;5892;43.412;24.612;2023-05-21T04:09:09;99922.38;;;15.90;100.00
11672;BME280;5892;43.412;24.612;2023-05-21T04:11:36;99920.22;;;16.46;100.00
11672;BME280;5892;43.412;24.612;2023-05-21T04:14:05;99915.94;;;16.99;100.00
11672;BME280;5892;43.412;24.612;2023-05-21T04:16:31;99910.25;;;17.11;100.00
11672;BME280;5892;43.412;24.612;2023-05-21T04:18:59;99918.22;;;16.78;100.00
11672;BME280;5892;43.412;24.612;2023-05-21T04:21:26;99922.44;;;16.56;100.00
11672;BME280;5892;43.412;24.612;2023-05-21T04:23:53;99922.47;;;16.25;100.00
11672;BME280;5892;43.412;24.612;2023-05-21T04:26:22;99922.56;;;16.28;100.00
11672;BME280;5892;43.412;24.612;2023-05-21T04:28:49;99909.91;;;15.96;100.00
11672;BME280;5892;43.412;24.612;2023-05-21T04:31:21;99916.19;;;16.43;100.00
11672;BME280;5892;43.412;24.612;2023-05-21T04:33:48;99913.09;;;16.96;100.00
11672;BME280;5892;43.412;24.612;2023-05-21T04:36:15;99920.28;;;17.77;100.00
11672;BME280;5892;43.412;24.612;2023-05-21T04:38:42;99919.78;;;18.17;100.00
11672;BME280;5892;43.412;24.612;2023-05-21T04:41:09;99926.88;;;18.90;100.00
11672;BME280;5892;43.412;24.612;2023-05-21T04:43:36;99927.34;;;19.88;100.00
11672;BME280;5892;43.412;24.612;2023-05-21T04:46:03;99927.47;;;20.06;100.00
11672;BME280;5892;43.412;24.612;2023-05-21T04:48:31;99922.69;;;20.03;100.00
11672;BME280;5892;43.412;24.612;2023-05-21T04:50:58;99923.72;;;20.83;100.00
11672;BME280;5892;43.412;24.612;2023-05-21T04:53:25;99930.72;;;21.21;86.24
11672;BME280;5892;43.412;24.612;2023-05-21T04:55:52;99928.44;;;21.44;84.85
11672;BME280;5892;43.412;24.612;2023-05-21T04:58:19;99925.03;;;22.01;82.96
11672;BME280;5892;43.412;24.612;2023-05-21T05:00:46;99929.69;;;21.61;82.38
11672;BME280;5892;43.412;24.612;2023-05-21T05:03:15;99876.28;;;21.48;81.58
11672;BME280;5892;43.412;24.612;2023-05-21T05:05:44;99939.31;;;21.88;82.86
11672;BME280;5892;43.412;24.612;2023-05-21T05:08:11;99830.03;;;21.26;82.98
11672;BME280;5892;43.412;24.612;2023-05-21T05:10:38;99938.91;;;21.93;82.21
11672;BME280;5892;43.412;24.612;2023-05-21T05:13:05;99930.13;;;21.70;84.67
11672;BME280;5892;43.412;24.612;2023-05-21T05:15:34;99934.94;;;21.91;84.06
11672;BME280;5892;43.412;24.612;2023-05-21T05:18:01;99911.47;;;22.03;83.13
11672;BME280;5892;43.412;24.612;2023-05-21T05:20:28;99932.53;;;21.86;84.95
11672;BME280;5892;43.412;24.612;2023-05-21T05:22:56;99927.75;;;21.93;84.66
11672;BME280;5892;43.412;24.612;2023-05-21T05:25:23;99931.81;;;22.03;84.21
11672;BME280;5892;43.412;24.612;2023-05-21T05:27:51;99934.22;;;22.08;84.56
11672;BME280;5892;43.412;24.612;2023-05-21T05:30:18;99945.38;;;22.29;83.61
11672;BME280;5892;43.412;24.612;2023-05-21T05:32:45;99938.19;;;22.21;83.73
11672;BME280;5892;43.412;24.612;2023-05-21T05:35:12;99944.97;;;22.38;83.58
11672;BME280;5892;43.412;24.612;2023-05-21T05:37:39;99928.63;;;22.33;81.40
11672;BME280;5892;43.412;24.612;2023-05-21T05:40:07;99943.00;;;22.38;80.90
11672;BME280;5892;43.412;24.612;2023-05-21T05:42:34;99944.56;;;22.08;82.42
11672;BME280;5892;43.412;24.612;2023-05-21T05:45:01;99936.63;;;22.34;82.67
11672;BME280;5892;43.412;24.612;2023-05-21T05:47:28;99943.78;;;22.74;81.17
11672;BME280;5892;43.412;24.612;2023-05-21T05:49:56;99941.38;;;22.66;82.29
11672;BME280;5892;43.412;24.612;2023-05-21T05:52:23;99935.81;;;22.66;83.30
11672;BME280;5892;43.412;24.612;2023-05-21T05:54:53;99926.22;;;22.63;83.38
11672;BME280;5892;43.412;24.612;2023-05-21T05:57:21;99926.22;;;22.46;84.80
11672;BME280;5892;43.412;24.612;2023-05-21T05:59:48;99929.00;;;22.67;83.50
11672;BME280;5892;43.412;24.612;2023-05-21T06:02:14;99935.81;;;22.73;83.47
11672;BME280;5892;43.412;24.612;2023-05-21T06:04:42;99929.41;;;22.90;82.92
11672;BME280;5892;43.412;24.612;2023-05-21T06:07:09;99927.03;;;22.74;83.52
11672;BME280;5892;43.412;24.612;2023-05-21T06:09:35;99919.03;;;22.62;84.12
11672;BME280;5892;43.412;24.612;2023-05-21T06:12:03;99927.81;;;22.68;84.33
11672;BME280;5892;43.412;24.612;2023-05-21T06:14:32;99921.81;;;22.69;83.06
11672;BME280;5892;43.412;24.612;2023-05-21T06:16:59;99923.81;;;22.83;82.94
11672;BME280;5892;43.412;24.612;2023-05-21T06:19:26;99923.81;;;22.90;82.77
11672;BME280;5892;43.412;24.612;2023-05-21T06:21:53;99924.56;;;23.05;81.48
11672;BME280;5892;43.412;24.612;2023-05-21T06:24:19;99917.69;;;23.27;79.75
11672;BME280;5892;43.412;24.612;2023-05-21T06:26:46;99888.47;;;23.42;77.18
11672;BME280;5892;43.412;24.612;2023-05-21T06:29:13;99918.25;;;23.81;77.05
11672;BME280;5892;43.412;24.612;2023-05-21T06:31:42;99904.13;;;24.02;75.49
11672;BME280;5892;43.412;24.612;2023-05-21T06:34:10;99915.41;;;23.91;75.63
11672;BME280;5892;43.412;24.612;2023-05-21T06:36:37;99911.09;;;23.73;74.93
11672;BME280;5892;43.412;24.612;2023-05-21T06:39:04;99905.88;;;23.78;74.52
11672;BME280;5892;43.412;24.612;2023-05-21T06:41:30;99880.69;;;23.78;75.76
11672;BME280;5892;43.412;24.612;2023-05-21T06:43:57;99903.81;;;23.89;76.62
11672;BME280;5892;43.412;24.612;2023-05-21T06:46:25;99892.78;;;23.61;77.17
11672;BME280;5892;43.412;24.612;2023-05-21T06:48:54;99899.97;;;23.62;76.80
11672;BME280;5892;43.412;24.612;2023-05-21T06:51:21;99895.50;;;23.72;76.81
11672;BME280;5892;43.412;24.612;2023-05-21T06:53:48;99891.47;;;23.80;77.02
11672;BME280;5892;43.412;24.612;2023-05-21T06:56:15;99899.72;;;23.28;78.54
11672;BME280;5892;43.412;24.612;2023-05-21T06:58:42;99893.53;;;21.96;84.75
11672;BME280;5892;43.412;24.612;2023-05-21T07:01:09;99902.28;;;22.52;84.21
11672;BME280;5892;43.412;24.612;2023-05-21T07:03:36;99887.91;;;22.82;83.38
11672;BME280;5892;43.412;24.612;2023-05-21T07:06:04;99867.13;;;22.97;83.35
11672;BME280;5892;43.412;24.612;2023-05-21T07:08:32;99876.09;;;23.43;80.70
11672;BME280;5892;43.412;24.612;2023-05-21T07:10:58;99868.91;;;23.46;78.41
11672;BME280;5892;43.412;24.612;2023-05-21T07:13:25;99886.56;;;23.21;77.66
11672;BME280;5892;43.412;24.612;2023-05-21T07:15:52;99875.00;;;23.19;76.06
11672;BME280;5892;43.412;24.612;2023-05-21T07:18:19;99870.03;;;23.59;73.87
11672;BME280;5892;43.412;24.612;2023-05-21T07:20:46;99883.19;;;23.62;73.58
11672;BME280;5892;43.412;24.612;2023-05-21T07:23:14;99875.78;;;23.20;68.76
11672;BME280;5892;43.412;24.612;2023-05-21T07:25:41;99855.09;;;23.03;71.01
11672;BME280;5892;43.412;24.612;2023-05-21T07:28:08;99871.53;;;23.74;67.56
11672;BME280;5892;43.412;24.612;2023-05-21T07:30:35;99875.09;;;24.30;65.00
11672;BME280;5892;43.412;24.612;2023-05-21T07:33:02;99862.19;;;24.43;63.62
11672;BME280;5892;43.412;24.612;2023-05-21T07:35:30;99871.34;;;24.47;63.47
11672;BME280;5892;43.412;24.612;2023-05-21T07:37:57;99876.28;;;23.77;63.98
11672;BME280;5892;43.412;24.612;2023-05-21T07:40:25;99871.72;;;23.35;65.48
11672;BME280;5892;43.412;24.612;2023-05-21T07:42:52;99877.19;;;23.63;66.16
11672;BME280;5892;43.412;24.612;2023-05-21T07:45:20;99866.13;;;23.39;63.04
11672;BME280;5892;43.412;24.612;2023-05-21T07:47:49;99849.31;;;23.42;62.95
11672;BME280;5892;43.412;24.612;2023-05-21T07:50:16;99877.25;;;23.53;60.99
11672;BME280;5892;43.412;24.612;2023-05-21T07:52:43;99872.09;;;23.48;61.53
11672;BME280;5892;43.412;24.612;2023-05-21T07:55:10;99874.09;;;23.47;60.31
11672;BME280;5892;43.412;24.612;2023-05-21T07:57:39;99873.69;;;23.45;60.38
11672;BME280;5892;43.412;24.612;2023-05-21T08:00:07;99871.69;;;23.49;59.95
11672;BME280;5892;43.412;24.612;2023-05-21T08:02:35;99860.31;;;23.78;60.16
11672;BME280;5892;43.412;24.612;2023-05-21T08:05:02;99857.59;;;24.19;59.38
11672;BME280;5892;43.412;24.612;2023-05-21T08:07:29;99865.59;;;24.20;57.64
11672;BME280;5892;43.412;24.612;2023-05-21T08:09:57;99862.47;;;24.07;58.30
11672;BME280;5892;43.412;24.612;2023-05-21T08:12:24;99862.47;;;24.11;56.10
11672;BME280;5892;43.412;24.612;2023-05-21T08:14:52;99863.91;;;24.30;56.29
11672;BME280;5892;43.412;24.612;2023-05-21T08:17:19;99862.44;;;24.59;56.27
11672;BME280;5892;43.412;24.612;2023-05-21T08:19:45;99854.91;;;24.86;55.36
11672;BME280;5892;43.412;24.612;2023-05-21T08:22:14;99850.22;;;24.76;56.80
11672;BME280;5892;43.412;24.612;2023-05-21T08:24:42;99849.25;;;24.94;57.94
11672;BME280;5892;43.412;24.612;2023-05-21T08:27:09;99847.88;;;24.71;57.70
11672;BME280;5892;43.412;24.612;2023-05-21T08:29:36;99854.84;;;24.60;56.44
11672;BME280;5892;43.412;24.612;2023-05-21T08:32:05;99854.16;;;24.48;57.59
11672;BME280;5892;43.412;24.612;2023-05-21T08:34:34;99853.25;;;24.59;55.15
11672;BME280;5892;43.412;24.612;2023-05-21T08:37:01;99837.75;;;23.99;57.63
11672;BME280;5892;43.412;24.612;2023-05-21T08:39:27;99854.06;;;24.07;59.20
11672;BME280;5892;43.412;24.612;2023-05-21T08:41:59;99820.44;;;24.15;56.33
11672;BME280;5892;43.412;24.612;2023-05-21T08:44:36;99853.16;;;24.28;55.91
11672;BME280;5892;43.412;24.612;2023-05-21T08:47:12;99854.91;;;24.53;54.93
11672;BME280;5892;43.412;24.612;2023-05-21T08:49:42;99852.09;;;24.53;55.67
11672;BME280;5892;43.412;24.612;2023-05-21T08:52:11;99843.25;;;24.58;57.70
11672;BME280;5892;43.412;24.612;2023-05-21T08:54:42;99845.41;;;24.43;57.44
11672;BME280;5892;43.412;24.612;2023-05-21T08:57:10;99850.75;;;24.27;56.92
11672;BME280;5892;43.412;24.612;2023-05-21T08:59:40;99854.16;;;24.48;58.54
11672;BME280;5892;43.412;24.612;2023-05-21T09:02:11;99846.38;;;23.67;58.83
11672;BME280;5892;43.412;24.612;2023-05-21T09:04:39;99843.75;;;23.97;58.01
11672;BME280;5892;43.412;24.612;2023-05-21T09:07:08;99852.78;;;24.23;57.69
11672;BME280;5892;43.412;24.612;2023-05-21T09:09:40;99857.41;;;24.43;56.48
11672;BME280;5892;43.412;24.612;2023-05-21T09:12:09;99850.25;;;24.35;55.66
11672;BME280;5892;43.412;24.612;2023-05-21T09:14:37;99848.28;;;23.84;57.50
11672;BME280;5892;43.412;24.612;2023-05-21T09:17:04;99844.25;;;23.89;57.72
11672;BME280;5892;43.412;24.612;2023-05-21T09:19:33;99848.88;;;24.10;58.04
11672;BME280;5892;43.412;24.612;2023-05-21T09:22:03;99851.06;;;24.36;55.95
11672;BME280;5892;43.412;24.612;2023-05-21T09:24:31;99848.91;;;24.51;55.66
11672;BME280;5892;43.412;24.612;2023-05-21T09:26:57;99854.78;;;24.63;55.94
11672;BME280;5892;43.412;24.612;2023-05-21T09:29:25;99854.91;;;24.53;52.92
11672;BME280;5892;43.412;24.612;2023-05-21T09:31:52;99838.19;;;24.42;54.35
11672;BME280;5892;43.412;24.612;2023-05-21T09:34:20;99853.19;;;24.62;53.53
11672;BME280;5892;43.412;24.612;2023-05-21T09:36:49;99844.09;;;24.51;55.20
11672;BME280;5892;43.412;24.612;2023-05-21T09:39:26;99850.03;;;24.57;56.11
11672;BME280;5892;43.412;24.612;2023-05-21T09:41:55;99853.00;;;24.80;55.43
11672;BME280;5892;43.412;24.612;2023-05-21T09:44:22;99821.72;;;24.85;55.08
11672;BME280;5892;43.412;24.612;2023-05-21T09:46:49;99847.34;;;24.83;56.43
11672;BME280;5892;43.412;24.612;2023-05-21T09:49:22;99856.50;;;24.50;57.17
11672;BME280;5892;43.412;24.612;2023-05-21T09:51:55;99847.31;;;24.49;56.03
11672;BME280;5892;43.412;24.612;2023-05-21T09:54:22;99838.66;;;24.74;55.58
11672;BME280;5892;43.412;24.612;2023-05-21T09:56:50;99839.09;;;25.07;55.69
11672;BME280;5892;43.412;24.612;2023-05-21T09:59:17;99783.41;;;24.75;54.97
11672;BME280;5892;43.412;24.612;2023-05-21T10:01:45;99842.38;;;25.02;51.50
11672;BME280;5892;43.412;24.612;2023-05-21T10:04:12;99855.50;;;24.71;51.74
11672;BME280;5892;43.412;24.612;2023-05-21T10:06:42;99845.53;;;24.66;54.65
11672;BME280;5892;43.412;24.612;2023-05-21T10:09:10;99840.84;;;24.56;53.85
11672;BME280;5892;43.412;24.612;2023-05-21T10:11:43;99825.91;;;24.70;54.59
11672;BME280;5892;43.412;24.612;2023-05-21T10:14:17;99804.47;;;24.86;54.11
11672;BME280;5892;43.412;24.612;2023-05-21T10:16:46;99818.66;;;24.72;53.39
11672;BME280;5892;43.412;24.612;2023-05-21T10:19:14;99836.91;;;24.91;52.14
11672;BME280;5892;43.412;24.612;2023-05-21T10:21:41;99832.91;;;24.88;48.27
11672;BME280;5892;43.412;24.612;2023-05-21T10:24:10;99841.34;;;24.85;46.46
11672;BME280;5892;43.412;24.612;2023-05-21T10:26:40;99842.53;;;24.87;48.75
11672;BME280;5892;43.412;24.612;2023-05-21T10:29:08;99846.84;;;24.96;50.97
11672;BME280;5892;43.412;24.612;2023-05-21T10:31:37;99841.88;;;24.73;49.78
11672;BME280;5892;43.412;24.612;2023-05-21T10:34:04;99830.66;;;24.35;50.94
11672;BME280;5892;43.412;24.612;2023-05-21T10:36:32;99844.91;;;24.03;50.89
11672;BME280;5892;43.412;24.612;2023-05-21T10:39:00;99820.47;;;24.07;52.16
11672;BME280;5892;43.412;24.612;2023-05-21T10:41:34;99812.97;;;24.01;51.12
11672;BME280;5892;43.412;24.612;2023-05-21T10:44:11;99832.84;;;24.17;52.67
11672;BME280;5892;43.412;24.612;2023-05-21T10:47:02;99830.22;;;23.92;53.06
11672;BME280;5892;43.412;24.612;2023-05-21T10:49:50;99819.28;;;24.08;53.77
11672;BME280;5892;43.412;24.612;2023-05-21T10:52:47;99825.03;;;23.91;56.02
11672;BME280;5892;43.412;24.612;2023-05-21T10:55:35;99816.81;;;24.21;53.49
11672;BME280;5892;43.412;24.612;2023-05-21T11:01:02;99817.84;;;24.75;53.94
11672;BME280;5892;43.412;24.612;2023-05-21T11:03:31;99818.03;;;24.95;54.42
11672;BME280;5892;43.412;24.612;2023-05-21T11:05:58;99822.22;;;24.76;53.46
11672;BME280;5892;43.412;24.612;2023-05-21T11:08:29;99814.56;;;24.80;52.36
11672;BME280;5892;43.412;24.612;2023-05-21T11:10:58;99823.75;;;24.81;53.51
11672;BME280;5892;43.412;24.612;2023-05-21T11:13:28;99813.69;;;24.91;52.47
11672;BME280;5892;43.412;24.612;2023-05-21T11:16:13;99793.56;;;24.62;52.01
11672;BME280;5892;43.412;24.612;2023-05-21T11:18:59;99820.09;;;24.50;53.53
11672;BME280;5892;43.412;24.612;2023-05-21T11:21:32;99818.59;;;24.79;54.77
11672;BME280;5892;43.412;24.612;2023-05-21T11:24:04;99810.59;;;24.78;54.40
11672;BME280;5892;43.412;24.612;2023-05-21T11:27:00;99805.47;;;25.07;54.22
11672;BME280;5892;43.412;24.612;2023-05-21T11:29:53;99810.34;;;24.99;52.57
11672;BME280;5892;43.412;24.612;2023-05-21T11:32:21;99795.78;;;25.11;52.73
11672;BME280;5892;43.412;24.612;2023-05-21T11:34:51;99788.91;;;25.16;51.37
11672;BME280;5892;43.412;24.612;2023-05-21T11:37:36;99792.41;;;25.23;51.12
11672;BME280;5892;43.412;24.612;2023-05-21T11:40:16;99789.91;;;25.29;51.19
11672;BME280;5892;43.412;24.612;2023-05-21T11:42:48;99794.63;;;25.36;51.29
11672;BME280;5892;43.412;24.612;2023-05-21T11:45:18;99787.34;;;25.42;50.65
11672;BME280;5892;43.412;24.612;2023-05-21T11:47:45;99781.88;;;25.31;50.08
11672;BME280;5892;43.412;24.612;2023-05-21T11:50:13;99764.16;;;25.11;51.61
11672;BME280;5892;43.412;24.612;2023-05-21T11:52:40;99763.72;;;25.39;51.04
11672;BME280;5892;43.412;24.612;2023-05-21T11:55:09;99755.69;;;25.41;50.19
11672;BME280;5892;43.412;24.612;2023-05-21T11:57:39;99755.28;;;25.69;50.71
11672;BME280;5892;43.412;24.612;2023-05-21T12:00:12;99740.25;;;26.03;49.21
11672;BME280;5892;43.412;24.612;2023-05-21T12:02:45;99768.75;;;25.78;45.44
11672;BME280;5892;43.412;24.612;2023-05-21T12:05:12;99749.28;;;25.41;48.21
11672;BME280;5892;43.412;24.612;2023-05-21T12:08:19;99751.28;;;25.40;47.21
11672;BME280;5892;43.412;24.612;2023-05-21T12:11:12;99748.81;;;25.46;46.78
11672;BME280;5892;43.412;24.612;2023-05-21T12:13:41;99744.25;;;25.55;46.86
11672;BME280;5892;43.412;24.612;2023-05-21T12:16:08;99721.25;;;25.14;48.11
11672;BME280;5892;43.412;24.612;2023-05-21T12:18:37;99727.59;;;25.18;48.76
11672;BME280;5892;43.412;24.612;2023-05-21T12:21:04;99720.81;;;25.42;48.21
11672;BME280;5892;43.412;24.612;2023-05-21T12:23:31;99726.59;;;25.55;48.40
11672;BME280;5892;43.412;24.612;2023-05-21T12:25:58;99717.59;;;25.17;49.18
11672;BME280;5892;43.412;24.612;2023-05-21T12:28:25;99721.97;;;25.18;50.04
11672;BME280;5892;43.412;24.612;2023-05-21T12:30:52;99730.28;;;25.25;50.07
11672;BME280;5892;43.412;24.612;2023-05-21T12:33:19;99716.81;;;25.43;49.46
11672;BME280;5892;43.412;24.612;2023-05-21T12:35:48;99730.44;;;25.41;50.09
11672;BME280;5892;43.412;24.612;2023-05-21T12:38:16;99722.41;;;25.43;49.38
11672;BME280;5892;43.412;24.612;2023-05-21T12:40:43;99717.53;;;25.47;49.17
11672;BME280;5892;43.412;24.612;2023-05-21T12:43:10;99715.38;;;25.58;48.83
11672;BME280;5892;43.412;24.612;2023-05-21T12:45:38;99716.59;;;25.57;49.49
11672;BME280;5892;43.412;24.612;2023-05-21T12:48:05;99713.09;;;25.73;49.30
11672;BME280;5892;43.412;24.612;2023-05-21T12:50:32;99712.06;;;25.87;49.12
11672;BME280;5892;43.412;24.612;2023-05-21T12:53:01;99717.63;;;25.67;49.17
11672;BME280;5892;43.412;24.612;2023-05-21T12:55:28;99710.88;;;25.64;48.95
11672;BME280;5892;43.412;24.612;2023-05-21T12:58:04;99712.44;;;25.89;49.08
11672;BME280;5892;43.412;24.612;2023-05-21T13:00:33;99699.44;;;26.18;46.56
11672;BME280;5892;43.412;24.612;2023-05-21T13:03:01;99711.00;;;26.43;46.20
11672;BME280;5892;43.412;24.612;2023-05-21T13:05:38;99695.41;;;26.78;45.34
11672;BME280;5892;43.412;24.612;2023-05-21T13:08:09;99703.31;;;27.03;44.13